Time;durP1;ratioP1;P1;durP2;ratioP2;P2;SDS_P1;SDS_P2;PMS_P1;PMS_P2;Temp;Humidity;BMP_temperature;BMP_pressure;BME280_temperature;BME280_humidity;BME280_pressure;Samples;Min_cycle;Max_cycle;Signal;HPM_P1;HPM_P2
2021/04/06 00:02:19;;;;;;;0.07;0.07;;;;;;;2.76;63.46;98148.72;5079777;28;20208;-74
2021/04/06 00:04:49;;;;;;;0.03;0.03;;;;;;;2.73;63.77;98152.44;5072763;28;20206;-74
2021/04/06 00:07:23;;;;;;;0.00;0.00;;;;;;;2.73;63.91;98147.13;5083846;28;20240;-74
2021/04/06 00:09:53;;;;;;;0.20;0.20;;;;;;;2.73;64.34;98151.59;5084408;28;20204;-75
2021/04/06 00:12:23;;;;;;;0.00;0.00;;;;;;;2.46;63.94;98110.41;5073378;28;20208;-69
2021/04/06 00:14:52;;;;;;;0.20;0.10;;;;;;;2.72;63.83;98148.09;5075741;28;20192;-69
2021/04/06 00:17:21;;;;;;;0.00;0.00;;;;;;;2.70;64.15;98157.97;5083775;28;20219;-66
2021/04/06 00:19:50;;;;;;;1999.90;972.27;;;;;;;2.60;63.98;98149.06;5072619;28;20199;-69
2021/04/06 00:22:19;;;;;;;190.90;62.73;;;;;;;2.34;63.75;98105.19;5079031;28;20277;-69
2021/04/06 00:24:50;;;;;;;16.77;7.20;;;;;;;2.63;64.21;98156.75;5087229;28;20563;-69
2021/04/06 00:27:19;;;;;;;9.83;4.60;;;;;;;2.62;63.75;98155.06;5072557;28;20219;-69
2021/04/06 00:29:51;;;;;;;2.07;1.80;;;;;;;2.63;63.81;98166.50;5075677;28;20215;-69
2021/04/06 00:32:21;;;;;;;1.70;1.20;;;;;;;2.61;63.74;98160.50;5072486;28;20568;-69
2021/04/06 00:34:52;;;;;;;3.80;2.00;;;;;;;2.62;63.69;98162.19;5077428;28;20208;-69
2021/04/06 00:37:19;;;;;;;2.33;1.43;;;;;;;2.59;63.27;98163.25;5085271;28;20660;-66
2021/04/06 00:39:48;;;;;;;1.67;0.80;;;;;;;2.55;63.52;98156.53;5072372;28;20214;-69
2021/04/06 00:42:18;;;;;;;3.23;2.20;;;;;;;2.52;63.76;98162.06;5076882;28;20255;-67
2021/04/06 00:44:49;;;;;;;5.10;2.53;;;;;;;2.46;64.31;98144.84;5092263;28;20294;-69
2021/04/06 00:47:24;;;;;;;2.00;1.00;;;;;;;2.45;64.40;98148.44;5084359;28;20543;-69
2021/04/06 00:49:53;;;;;;;4.63;1.70;;;;;;;2.40;64.60;98126.75;5074805;28;20217;-68
2021/04/06 00:52:22;;;;;;;0.83;0.30;;;;;;;2.18;64.40;98101.09;5076682;28;20203;-68
2021/04/06 00:54:52;;;;;;;0.83;0.57;;;;;;;2.45;63.89;98150.25;5072433;28;20199;-68
2021/04/06 00:57:23;;;;;;;0.37;0.37;;;;;;;2.43;64.34;98149.50;5079218;28;20576;-68
2021/04/06 01:00:13;;;;;;;2.87;1.73;;;;;;;2.44;65.01;98149.38;5089671;28;20211;-68
2021/04/06 01:02:44;;;;;;;1.03;0.70;;;;;;;2.43;64.16;98147.69;5087108;28;20253;-74
2021/04/06 01:05:12;;;;;;;0.30;0.30;;;;;;;2.40;64.21;98144.44;5090966;28;20283;-74
2021/04/06 01:07:41;;;;;;;0.97;0.50;;;;;;;2.40;64.41;98144.44;5092185;28;20319;-74
2021/04/06 01:10:09;;;;;;;0.50;0.50;;;;;;;2.33;64.04;98145.88;5075976;28;20216;-74
2021/04/06 01:12:38;;;;;;;2.03;0.30;;;;;;;2.30;64.36;98162.00;5072086;28;20203;-74
2021/04/06 01:15:06;;;;;;;0.40;0.40;;;;;;;2.27;64.59;98168.38;5080464;28;20203;-74
2021/04/06 01:17:34;;;;;;;0.30;0.20;;;;;;;2.04;64.29;98127.75;5082784;28;20225;-74
2021/04/06 01:20:07;;;;;;;0.30;0.20;;;;;;;2.01;64.63;98140.38;5074559;28;20192;-74
2021/04/06 01:22:36;;;;;;;0.10;0.10;;;;;;;2.18;64.41;98166.44;5082626;28;20227;-74
2021/04/06 01:25:06;;;;;;;1.17;0.20;;;;;;;2.14;64.90;98173.75;5072209;28;20656;-74
2021/04/06 01:27:33;;;;;;;3.40;0.40;;;;;;;2.11;65.06;98176.59;5072379;28;20188;-74
2021/04/06 01:30:00;;;;;;;0.33;0.33;;;;;;;2.10;65.04;98182.84;5084845;28;20208;-75
2021/04/06 01:32:29;;;;;;;0.20;0.10;;;;;;;2.09;65.23;98181.16;5084860;28;20207;-74
2021/04/06 01:34:56;;;;;;;0.37;0.37;;;;;;;1.88;65.09;98161.63;5088650;28;20210;-74
2021/04/06 01:37:25;;;;;;;0.00;0.00;;;;;;;1.89;65.08;98158.00;5092065;28;20199;-68
2021/04/06 01:39:59;;;;;;;0.27;0.23;;;;;;;2.01;64.97;98170.31;5074324;28;20197;-68
2021/04/06 01:42:30;;;;;;;3.50;0.30;;;;;;;2.05;64.84;98184.16;5089039;28;20200;-67
2021/04/06 01:44:59;;;;;;;0.10;0.10;;;;;;;1.99;65.43;98185.47;5088506;28;20308;-68
2021/04/06 01:47:27;;;;;;;0.00;0.00;;;;;;;2.01;65.38;98183.56;5079298;28;20231;-68
2021/04/06 01:49:56;;;;;;;0.17;0.17;;;;;;;2.06;65.34;98186.69;5076634;28;20243;-68
2021/04/06 01:52:26;;;;;;;0.40;0.20;;;;;;;2.00;64.58;98191.59;5070165;28;20230;-68
2021/04/06 01:54:57;;;;;;;0.17;0.13;;;;;;;2.04;65.30;98193.06;5069426;28;20203;-68
2021/04/06 01:57:29;;;;;;;0.53;0.20;;;;;;;1.92;65.06;98175.47;5073263;28;20282;-68
2021/04/06 01:59:58;;;;;;;0.03;0.03;;;;;;;1.84;64.97;98161.00;5080698;28;20670;-68
2021/04/06 02:02:26;;;;;;;0.10;0.10;;;;;;;2.01;64.38;98194.13;5088199;28;20287;-68
2021/04/06 02:04:57;;;;;;;0.30;0.30;;;;;;;2.00;64.87;98197.75;5069981;28;20317;-68
2021/04/06 02:07:27;;;;;;;3.33;0.33;;;;;;;2.02;65.03;98194.97;5069847;28;20227;-74
2021/04/06 02:09:55;;;;;;;455.30;164.90;;;;;;;1.96;64.58;98184.84;5089256;28;20698;-74
2021/04/06 02:12:23;;;;;;;51.33;20.13;;;;;;;2.03;64.77;98196.66;5085425;28;20569;-74
2021/04/06 02:14:53;;;;;;;2.93;1.80;;;;;;;2.06;64.71;98199.09;5085957;28;20630;-74
2021/04/06 02:17:21;;;;;;;2.30;1.77;;;;;;;1.71;64.73;98143.50;5089043;28;20191;-74
2021/04/06 02:19:48;;;;;;;1.60;1.10;;;;;;;2.09;65.01;98205.00;5084663;28;20195;-74
2021/04/06 02:22:18;;;;;;;0.87;0.73;;;;;;;2.14;64.81;98208.16;5073760;28;20288;-74
2021/04/06 02:24:46;;;;;;;1.17;0.97;;;;;;;2.20;65.16;98213.97;5087558;28;20203;-74
2021/04/06 02:27:17;;;;;;;0.30;0.30;;;;;;;2.25;64.97;98206.50;5081897;28;20299;-74
2021/04/06 02:29:46;;;;;;;0.57;0.50;;;;;;;2.24;64.76;98204.81;5072564;28;20224;-74
2021/04/06 02:32:16;;;;;;;1.07;0.97;;;;;;;2.29;64.53;98206.16;5074300;28;20657;-74
2021/04/06 02:34:45;;;;;;;1.07;0.67;;;;;;;2.35;64.44;98215.44;5087334;28;20203;-74
2021/04/06 02:37:15;;;;;;;0.80;0.80;;;;;;;2.38;64.75;98207.25;5076589;28;20266;-74
2021/04/06 02:39:42;;;;;;;0.70;0.70;;;;;;;2.33;63.93;98202.31;5073813;28;20223;-74
2021/04/06 02:42:29;;;;;;;1.13;0.67;;;;;;;2.43;64.02;98218.34;5076158;28;20208;-74
2021/04/06 02:45:05;;;;;;;1.03;1.03;;;;;;;2.48;64.57;98208.28;5070361;28;20297;-74
2021/04/06 02:47:34;;;;;;;0.83;0.47;;;;;;;2.31;64.08;98188.34;5071844;28;20189;-74
2021/04/06 02:50:05;;;;;;;3.47;2.97;;;;;;;2.44;63.24;98206.78;5075248;28;20213;-74
2021/04/06 02:52:32;;;;;;;0.73;0.60;;;;;;;2.47;63.35;98206.59;5083557;28;20257;-74
2021/04/06 02:55:00;;;;;;;0.50;0.50;;;;;;;2.49;63.73;98208.16;5072263;28;20280;-68
2021/04/06 02:57:27;;;;;;;0.30;0.30;;;;;;;2.49;63.35;98208.16;5071705;28;20312;-68
2021/04/06 02:59:54;;;;;;;0.40;0.40;;;;;;;2.49;63.52;98205.50;5070179;28;20260;-68
2021/04/06 03:02:21;;;;;;;0.50;0.50;;;;;;;2.33;63.36;98183.78;5077830;28;20271;-68
2021/04/06 03:04:50;;;;;;;0.63;0.50;;;;;;;2.52;63.84;98224.78;5077689;28;20231;-68
2021/04/06 03:07:23;;;;;;;0.30;0.30;;;;;;;2.40;63.00;98211.47;5078598;28;20850;-69
2021/04/06 03:09:55;;;;;;;0.40;0.40;;;;;;;2.44;63.58;98205.00;5081313;28;20233;-68
2021/04/06 03:12:27;;;;;;;0.30;0.30;;;;;;;2.44;63.56;98212.09;5075825;28;20290;-68
2021/04/06 03:14:56;;;;;;;4.03;0.17;;;;;;;2.39;63.73;98211.59;5077154;28;20257;-69
2021/04/06 03:17:24;;;;;;;0.63;0.30;;;;;;;2.37;63.50;98214.38;5080957;28;20670;-69
2021/04/06 03:19:58;;;;;;;0.40;0.40;;;;;;;2.34;64.05;98203.16;5080592;28;20198;-68
2021/04/06 03:22:26;;;;;;;0.63;0.40;;;;;;;2.34;63.70;98213.75;5079782;28;20258;-69
2021/04/06 03:24:54;;;;;;;0.10;0.10;;;;;;;2.27;63.50;98217.81;5076489;28;20865;-68
2021/04/06 03:27:29;;;;;;;0.20;0.20;;;;;;;2.18;64.10;98212.28;5071879;28;20231;-68
2021/04/06 03:29:57;;;;;;;0.10;0.10;;;;;;;2.22;63.60;98219.97;5069895;28;20243;-68
2021/04/06 03:32:25;;;;;;;0.10;0.10;;;;;;;2.15;63.36;98233.69;5085148;28;20222;-68
2021/04/06 03:34:53;;;;;;;1.60;0.27;;;;;;;2.06;63.76;98229.03;5089349;28;20217;-68
2021/04/06 03:37:22;;;;;;;0.30;0.20;;;;;;;2.06;63.74;98230.84;5081994;28;20223;-69
2021/04/06 03:39:51;;;;;;;0.23;0.20;;;;;;;2.07;64.17;98241.31;5068373;28;20708;-68
2021/04/06 03:42:23;;;;;;;0.20;0.10;;;;;;;1.90;64.25;98219.72;5105651;27;20223;-68
2021/04/06 03:44:50;;;;;;;0.10;0.10;;;;;;;2.02;64.36;98243.47;5083232;28;20275;-68
2021/04/06 03:47:18;;;;;;;0.10;0.10;;;;;;;2.02;64.46;98248.75;5083730;28;20691;-68
2021/04/06 03:49:49;;;;;;;0.00;0.00;;;;;;;1.96;63.77;98243.06;5075438;28;20218;-68
2021/04/06 03:52:16;;;;;;;1.00;0.13;;;;;;;1.86;63.42;98249.03;5073611;28;20652;-68
2021/04/06 03:54:46;;;;;;;0.53;0.20;;;;;;;1.82;63.60;98247.56;5089833;28;20191;-68
2021/04/06 03:57:23;;;;;;;0.10;0.10;;;;;;;1.83;63.92;98256.34;5085134;28;20295;-68
2021/04/06 03:59:51;;;;;;;0.40;0.17;;;;;;;1.82;64.21;98247.56;5075178;28;20195;-68
2021/04/06 04:02:18;;;;;;;0.50;0.10;;;;;;;1.83;64.06;98259.81;5090645;28;20195;-68
2021/04/06 04:04:45;;;;;;;0.10;0.10;;;;;;;1.80;64.48;98228.31;5088474;28;20274;-68
2021/04/06 04:07:13;;;;;;;0.87;0.37;;;;;;;1.91;64.85;98248.69;5081261;28;20622;-68
2021/04/06 04:09:41;;;;;;;0.10;0.10;;;;;;;1.96;65.00;98258.94;5080244;28;20291;-68
2021/04/06 04:12:09;;;;;;;9.70;0.20;;;;;;;2.01;65.07;98265.59;5080620;28;20295;-68
2021/04/06 04:14:37;;;;;;;1999.90;782.53;;;;;;;1.99;64.56;98241.03;5069125;28;20279;-68
2021/04/06 04:17:06;;;;;;;1307.50;496.80;;;;;;;2.09;64.36;98243.84;5075030;28;20211;-68
2021/04/06 04:19:33;;;;;;;37.13;12.50;;;;;;;1.78;64.39;98193.19;5075512;28;20305;-68
2021/04/06 04:22:00;;;;;;;11.37;4.17;;;;;;;2.13;64.65;98245.31;5078255;28;20199;-68
2021/04/06 04:24:27;;;;;;;9.50;3.63;;;;;;;2.28;64.33;98246.00;5070035;28;20508;-68
2021/04/06 04:26:55;;;;;;;3.73;1.63;;;;;;;2.31;63.99;98243.13;5073832;28;20680;-75
2021/04/06 04:29:22;;;;;;;3.80;1.47;;;;;;;2.36;64.06;98243.59;5070222;28;20200;-68
2021/04/06 04:31:50;;;;;;;2.77;1.50;;;;;;;2.42;63.87;98240.50;5073313;28;20225;-68
2021/04/06 04:34:18;;;;;;;2.70;1.50;;;;;;;2.56;63.71;98250.06;5081485;28;20207;-68
2021/04/06 04:36:45;;;;;;;5.13;2.07;;;;;;;2.69;63.33;98254.31;5076304;28;20188;-68
2021/04/06 04:39:13;;;;;;;0.80;0.80;;;;;;;2.79;62.20;98243.88;5073179;28;20675;-68
2021/04/06 04:41:40;;;;;;;0.40;0.40;;;;;;;2.91;62.71;98256.19;5073027;28;20651;-68
2021/04/06 04:44:07;;;;;;;0.93;0.47;;;;;;;3.07;62.31;98259.34;5067045;28;20234;-68
2021/04/06 04:46:35;;;;;;;0.73;0.40;;;;;;;3.07;61.86;98239.94;5065994;28;20208;-68
2021/04/06 04:49:03;;;;;;;1.83;0.60;;;;;;;3.34;61.41;98253.69;5076490;28;20291;-67
2021/04/06 04:51:30;;;;;;;1.60;1.23;;;;;;;3.49;61.52;98256.94;5074187;28;20246;-69
2021/04/06 04:53:58;;;;;;;0.70;0.70;;;;;;;3.62;60.91;98254.16;5073704;28;20714;-69
2021/04/06 04:56:25;;;;;;;0.50;0.50;;;;;;;3.79;60.86;98251.00;5074179;28;20226;-69
2021/04/06 04:58:52;;;;;;;0.53;0.30;;;;;;;3.91;59.66;98255.31;5087176;28;20234;-68
2021/04/06 05:01:19;;;;;;;0.40;0.30;;;;;;;4.04;59.66;98271.13;5086286;28;20190;-67
2021/04/06 05:03:46;;;;;;;2.53;0.33;;;;;;;4.13;59.67;98257.06;5080396;28;20685;-67
2021/04/06 05:06:14;;;;;;;0.50;0.50;;;;;;;4.34;58.29;98251.81;5077327;28;20224;-69
2021/04/06 05:08:41;;;;;;;0.17;0.17;;;;;;;4.46;57.45;98252.63;5081249;28;20259;-67
2021/04/06 05:11:09;;;;;;;1.43;0.40;;;;;;;4.63;58.03;98257.38;5073748;28;20217;-68
2021/04/06 05:13:36;;;;;;;0.10;0.10;;;;;;;4.79;57.86;98259.56;5071451;28;20200;-67
2021/04/06 05:16:05;;;;;;;0.40;0.27;;;;;;;4.84;55.74;98260.88;5088138;28;20204;-67
2021/04/06 05:18:32;;;;;;;0.00;0.00;;;;;;;5.00;56.88;98271.06;5083006;28;20224;-68
2021/04/06 05:20:59;;;;;;;0.77;0.27;;;;;;;5.02;56.61;98258.47;5081667;28;20671;-68
2021/04/06 05:23:27;;;;;;;0.17;0.17;;;;;;;5.07;56.07;98268.72;5082940;28;20231;-68
2021/04/06 05:25:55;;;;;;;0.90;0.20;;;;;;;5.16;55.95;98267.94;5079960;28;20205;-68
2021/04/06 05:28:22;;;;;;;0.10;0.10;;;;;;;5.33;55.46;98271.81;5078491;28;20828;-68
2021/04/06 05:30:49;;;;;;;0.23;0.20;;;;;;;5.57;55.00;98272.34;5074096;28;20741;-68
2021/04/06 05:33:20;;;;;;;1.90;0.37;;;;;;;5.76;54.70;98284.88;5069941;28;20202;-68
2021/04/06 05:35:47;;;;;;;0.27;0.20;;;;;;;5.95;55.19;98284.16;5082779;28;20280;-68
2021/04/06 05:38:14;;;;;;;0.30;0.17;;;;;;;6.19;53.37;98282.81;5069248;28;20197;-68
2021/04/06 05:40:42;;;;;;;0.40;0.10;;;;;;;6.32;53.51;98282.53;5078661;28;20580;-68
2021/04/06 05:43:13;;;;;;;0.17;0.17;;;;;;;6.49;53.42;98284.53;5078156;28;20201;-68
2021/04/06 05:45:45;;;;;;;0.47;0.23;;;;;;;6.65;51.15;98275.13;5076101;28;20197;-68
2021/04/06 05:48:15;;;;;;;0.00;0.00;;;;;;;6.71;51.81;98279.88;5088457;28;20277;-68
2021/04/06 05:50:46;;;;;;;0.20;0.20;;;;;;;6.73;51.42;98267.25;5079495;28;20727;-67
2021/04/06 05:53:14;;;;;;;0.33;0.20;;;;;;;6.93;50.81;98286.75;5070450;28;20206;-67
2021/04/06 05:55:43;;;;;;;0.10;0.10;;;;;;;6.75;49.41;98260.81;5076409;28;20483;-67
2021/04/06 05:58:11;;;;;;;1.40;0.30;;;;;;;6.88;50.41;98276.53;5086687;28;20283;-67
2021/04/06 06:00:39;;;;;;;0.30;0.30;;;;;;;7.01;49.65;98294.91;5078564;28;20212;-67
2021/04/06 06:03:07;;;;;;;1.50;0.53;;;;;;;7.21;50.34;98288.56;5073012;28;20198;-67
2021/04/06 06:05:35;;;;;;;0.10;0.10;;;;;;;7.35;49.23;98292.63;5078918;28;20234;-67
2021/04/06 06:08:07;;;;;;;0.20;0.20;;;;;;;7.49;48.70;98284.13;5086342;28;20323;-67
2021/04/06 06:10:37;;;;;;;0.10;0.10;;;;;;;7.34;49.08;98242.84;5087148;28;20250;-67
2021/04/06 06:13:20;;;;;;;0.23;0.23;;;;;;;7.58;49.29;98282.41;5084033;28;20199;-68
2021/04/06 06:16:06;;;;;;;2.57;0.43;;;;;;;7.51;49.76;98290.16;5082384;28;20206;-68
2021/04/06 06:18:33;;;;;;;0.30;0.30;;;;;;;7.36;49.24;98300.47;5088957;28;20222;-67
2021/04/06 06:21:02;;;;;;;0.43;0.20;;;;;;;7.32;49.44;98296.38;5089756;28;20202;-67
2021/04/06 06:23:29;;;;;;;1.70;0.20;;;;;;;7.23;49.12;98302.59;5070374;28;20249;-68
2021/04/06 06:26:17;;;;;;;0.10;0.10;;;;;;;6.92;48.30;98301.94;5084840;28;20313;-68
2021/04/06 06:29:14;;;;;;;0.10;0.10;;;;;;;6.95;49.71;98311.47;5089476;28;20218;-68
2021/04/06 06:31:44;;;;;;;0.10;0.10;;;;;;;6.78;50.15;98313.03;5072532;28;20567;-68
2021/04/06 06:34:40;;;;;;;0.10;0.10;;;;;;;6.64;50.09;98319.63;5079282;28;20688;-67
2021/04/06 06:37:14;;;;;;;0.17;0.10;;;;;;;6.59;50.08;98321.03;5076320;28;20194;-67
2021/04/06 06:39:49;;;;;;;4.07;0.30;;;;;;;6.41;50.98;98313.69;5078327;28;20206;-68
2021/04/06 06:42:20;;;;;;;0.70;0.27;;;;;;;6.43;50.38;98325.09;5084755;28;20201;-69
2021/04/06 06:44:49;;;;;;;2.13;0.30;;;;;;;6.18;49.75;98338.91;5089380;28;20671;-69
2021/04/06 06:47:36;;;;;;;0.23;0.23;;;;;;;6.23;51.54;98336.66;5078651;28;20662;-69
2021/04/06 06:50:09;;;;;;;1.93;0.30;;;;;;;6.27;51.45;98338.09;5082723;28;20621;-68
2021/04/06 06:52:57;;;;;;;0.90;0.27;;;;;;;6.14;51.13;98329.50;5078328;28;20273;-67
2021/04/06 06:55:26;;;;;;;0.53;0.37;;;;;;;6.09;51.32;98324.56;5068996;28;20197;-74
2021/04/06 06:58:02;;;;;;;0.93;0.27;;;;;;;6.13;51.55;98333.16;5076825;28;20713;-74
2021/04/06 07:00:31;;;;;;;0.17;0.17;;;;;;;5.95;51.13;98318.78;5090002;28;20200;-74
2021/04/06 07:02:58;;;;;;;0.20;0.20;;;;;;;6.05;51.67;98325.81;5075315;28;20482;-74
2021/04/06 07:05:26;;;;;;;1.07;0.10;;;;;;;6.03;51.73;98337.59;5080324;28;20209;-74
2021/04/06 07:07:57;;;;;;;0.10;0.10;;;;;;;5.84;51.86;98333.00;5071083;28;20229;-75
2021/04/06 07:10:28;;;;;;;2.30;0.20;;;;;;;5.81;51.53;98333.25;5081376;28;20295;-74
2021/04/06 07:13:05;;;;;;;0.10;0.00;;;;;;;5.82;51.82;98338.47;5077570;28;20233;-75
2021/04/06 07:15:36;;;;;;;0.00;0.00;;;;;;;5.89;52.70;98333.44;5080663;28;20588;-74
2021/04/06 07:18:06;;;;;;;0.27;0.23;;;;;;;5.72;51.99;98302.94;5081676;28;20281;-74
2021/04/06 07:20:38;;;;;;;0.40;0.13;;;;;;;5.99;52.50;98349.50;5082365;28;20217;-74
2021/04/06 07:23:09;;;;;;;0.00;0.00;;;;;;;5.82;52.18;98325.16;5071100;28;20289;-74
2021/04/06 07:25:37;;;;;;;0.00;0.00;;;;;;;6.01;51.52;98331.53;5069746;28;20477;-73
2021/04/06 07:28:05;;;;;;;0.00;0.00;;;;;;;6.17;51.60;98338.06;5072592;28;20285;-73
2021/04/06 07:30:33;;;;;;;0.27;0.23;;;;;;;6.28;51.66;98341.59;5076150;28;20255;-73
2021/04/06 07:33:01;;;;;;;0.10;0.10;;;;;;;6.28;51.09;98339.75;5077831;28;20201;-74
2021/04/06 07:35:29;;;;;;;0.07;0.07;;;;;;;6.36;51.77;98339.91;5080651;28;20273;-74
2021/04/06 07:37:56;;;;;;;0.00;0.00;;;;;;;6.43;51.37;98327.75;5074317;28;20453;-74
2021/04/06 07:40:25;;;;;;;0.30;0.20;;;;;;;6.39;51.19;98326.31;5076271;28;20206;-74
2021/04/06 07:42:53;;;;;;;0.10;0.10;;;;;;;6.34;51.10;98335.72;5075224;28;20212;-74
2021/04/06 07:45:42;;;;;;;1.10;0.20;;;;;;;6.34;51.59;98341.03;5077258;28;20200;-67
2021/04/06 07:48:33;;;;;;;0.63;0.10;;;;;;;6.40;51.32;98338.66;5066733;28;20229;-73
2021/04/06 07:51:23;;;;;;;1.17;0.10;;;;;;;6.25;49.95;98313.38;5073880;28;20525;-74
2021/04/06 07:54:03;;;;;;;0.13;0.13;;;;;;;6.39;51.56;98342.31;5072319;28;20249;-68
2021/04/06 07:56:51;;;;;;;0.10;0.10;;;;;;;6.43;51.03;98342.91;5074790;28;20223;-74
2021/04/06 07:59:37;;;;;;;0.00;0.00;;;;;;;6.44;50.40;98353.44;5071846;28;20200;-74
2021/04/06 08:02:28;;;;;;;0.10;0.10;;;;;;;6.37;50.08;98336.28;5072290;28;20265;-74
2021/04/06 08:05:05;;;;;;;0.10;0.10;;;;;;;6.50;50.93;98354.69;5077232;28;20294;-74
2021/04/06 08:07:35;;;;;;;0.20;0.20;;;;;;;6.29;49.97;98298.81;5076202;28;20780;-74
2021/04/06 08:10:38;;;;;;;0.00;0.00;;;;;;;6.56;50.77;98347.97;5074178;28;20570;-74
2021/04/06 08:13:05;;;;;;;0.00;0.00;;;;;;;6.51;50.18;98341.22;5066617;28;20210;-68
2021/04/06 08:15:33;;;;;;;0.10;0.10;;;;;;;6.57;50.28;98347.81;5070396;28;20732;-68
2021/04/06 08:18:05;;;;;;;0.50;0.10;;;;;;;6.69;50.55;98349.38;5068675;28;20628;-68
2021/04/06 08:20:45;;;;;;;0.13;0.10;;;;;;;6.81;47.89;98358.09;5069229;28;20203;-68
2021/04/06 08:23:39;;;;;;;0.57;0.17;;;;;;;6.98;49.32;98351.22;5069660;28;20646;-74
2021/04/06 08:26:27;;;;;;;0.73;0.20;;;;;;;7.23;49.25;98352.47;5073066;28;20197;-74
2021/04/06 08:28:55;;;;;;;0.20;0.20;;;;;;;7.35;47.86;98325.50;5073068;28;20304;-74
2021/04/06 08:31:33;;;;;;;0.10;0.10;;;;;;;7.61;48.05;98346.22;5077835;28;20660;-74
2021/04/06 08:34:35;;;;;;;0.20;0.20;;;;;;;7.63;47.96;98361.09;5078272;28;20215;-74
2021/04/06 08:37:20;;;;;;;0.57;0.20;;;;;;;7.46;47.65;98316.47;5076063;28;20222;-74
2021/04/06 08:39:48;;;;;;;0.90;0.20;;;;;;;7.73;46.82;98343.25;5078989;28;20245;-74
2021/04/06 08:42:17;;;;;;;0.23;0.20;;;;;;;7.66;46.70;98344.81;5079612;28;20218;-74
2021/04/06 08:44:56;;;;;;;0.10;0.10;;;;;;;7.47;44.54;98307.47;5080055;28;20199;-68
2021/04/06 08:47:46;;;;;;;0.00;0.00;;;;;;;8.05;47.56;98340.16;5083545;28;20560;-68
2021/04/06 08:50:30;;;;;;;0.10;0.10;;;;;;;8.27;47.31;98343.44;5069659;28;20249;-74
2021/04/06 08:52:58;;;;;;;0.30;0.10;;;;;;;8.60;46.77;98344.69;5075323;28;20732;-74
2021/04/06 08:55:26;;;;;;;0.40;0.10;;;;;;;8.65;46.15;98337.88;5073991;28;20209;-74
2021/04/06 08:57:58;;;;;;;0.10;0.10;;;;;;;8.64;44.21;98333.53;5077685;28;20225;-74
2021/04/06 09:00:26;;;;;;;0.30;0.30;;;;;;;8.89;45.79;98325.75;5077236;28;20694;-74
2021/04/06 09:03:05;;;;;;;0.10;0.10;;;;;;;9.17;44.94;98319.28;5084708;28;20299;-73
2021/04/06 09:05:33;;;;;;;0.00;0.00;;;;;;;9.27;45.32;98338.78;5069360;28;20211;-74
2021/04/06 09:08:00;;;;;;;0.73;0.20;;;;;;;9.25;44.28;98342.63;5078642;28;20238;-74
2021/04/06 09:10:38;;;;;;;0.10;0.10;;;;;;;9.27;42.78;98346.00;5072844;28;20668;-73
2021/04/06 09:13:05;;;;;;;0.00;0.00;;;;;;;9.18;42.65;98338.84;5074453;28;20222;-67
2021/04/06 09:15:32;;;;;;;0.00;0.00;;;;;;;8.93;42.30;98327.97;5069179;28;20192;-68
2021/04/06 09:18:01;;;;;;;0.00;0.00;;;;;;;9.12;44.46;98334.97;5075612;28;20280;-67
2021/04/06 09:20:29;;;;;;;0.93;0.30;;;;;;;9.16;44.21;98340.84;5075913;28;20214;-67
2021/04/06 09:22:58;;;;;;;0.20;0.20;;;;;;;8.98;42.08;98328.34;5073723;28;20662;-67
2021/04/06 09:25:28;;;;;;;0.10;0.10;;;;;;;9.17;44.13;98332.66;5072531;28;20190;-68
2021/04/06 09:27:58;;;;;;;0.23;0.20;;;;;;;9.25;42.19;98342.63;5070410;28;20244;-67
2021/04/06 09:30:32;;;;;;;0.50;0.30;;;;;;;9.45;42.73;98338.75;5075983;28;20224;-67
2021/04/06 09:33:09;;;;;;;0.20;0.20;;;;;;;9.59;43.91;98335.50;5072626;28;20611;-73
2021/04/06 09:35:37;;;;;;;0.07;0.07;;;;;;;9.80;44.68;98340.50;5080235;28;20303;-68
2021/04/06 09:38:06;;;;;;;0.40;0.30;;;;;;;9.95;44.37;98332.69;5074550;28;20204;-67
2021/04/06 09:40:35;;;;;;;0.87;0.23;;;;;;;10.18;44.25;98338.34;5090422;28;20194;-67
2021/04/06 09:43:03;;;;;;;0.73;0.13;;;;;;;10.21;42.47;98344.25;5073007;28;20208;-67
2021/04/06 09:45:31;;;;;;;0.20;0.20;;;;;;;10.23;43.01;98344.94;5076493;28;20284;-67
2021/04/06 09:47:59;;;;;;;2.47;0.30;;;;;;;10.35;43.14;98336.59;5084110;28;20313;-74
2021/04/06 09:50:27;;;;;;;1.97;0.27;;;;;;;10.44;42.71;98332.97;5079624;28;20249;-74
2021/04/06 09:52:54;;;;;;;0.20;0.20;;;;;;;10.49;41.94;98334.16;5071894;28;20281;-74
2021/04/06 09:55:25;;;;;;;0.17;0.13;;;;;;;10.37;42.50;98297.03;5077197;28;20193;-74
2021/04/06 09:57:54;;;;;;;2.47;0.20;;;;;;;10.66;42.38;98335.00;5082853;28;20203;-74
2021/04/06 10:00:29;;;;;;;9.77;0.40;;;;;;;10.72;40.08;98350.50;5083446;28;20835;-74
2021/04/06 10:03:05;;;;;;;0.20;0.20;;;;;;;10.71;39.34;98348.78;5082757;28;20250;-68
2021/04/06 10:05:33;;;;;;;0.67;0.30;;;;;;;10.68;41.25;98349.09;5081791;28;20286;-74
2021/04/06 10:08:01;;;;;;;0.10;0.10;;;;;;;10.73;40.55;98348.63;5078083;28;20241;-74
2021/04/06 10:10:31;;;;;;;5.50;0.20;;;;;;;10.91;40.96;98348.50;5082386;28;20741;-68
2021/04/06 10:13:00;;;;;;;0.73;0.17;;;;;;;10.97;40.79;98355.88;5077777;28;20255;-68
2021/04/06 10:15:30;;;;;;;0.30;0.20;;;;;;;10.73;40.08;98306.53;5084321;28;20621;-68
2021/04/06 10:18:08;;;;;;;0.93;0.20;;;;;;;11.22;40.54;98356.75;5077583;28;20276;-74
2021/04/06 10:20:42;;;;;;;1.90;0.30;;;;;;;11.10;41.06;98345.50;5078008;28;20201;-67
2021/04/06 10:23:10;;;;;;;0.10;0.10;;;;;;;11.29;41.06;98361.28;5078330;28;20203;-68
2021/04/06 10:25:41;;;;;;;1.00;0.37;;;;;;;11.24;40.05;98355.56;5071428;28;20726;-68
2021/04/06 10:28:21;;;;;;;0.37;0.20;;;;;;;11.31;40.07;98324.34;5106356;27;20679;-68
2021/04/06 10:30:56;;;;;;;3.27;0.40;;;;;;;11.54;40.37;98355.91;5078510;28;20215;-68
2021/04/06 10:33:28;;;;;;;0.37;0.17;;;;;;;11.69;39.95;98357.75;5072446;28;20295;-68
2021/04/06 10:35:56;;;;;;;1.60;0.20;;;;;;;11.77;40.08;98356.91;5075317;28;20284;-68
2021/04/06 10:38:26;;;;;;;0.50;0.30;;;;;;;11.86;39.33;98350.53;5079301;28;20662;-68
2021/04/06 10:41:01;;;;;;;1.23;0.30;;;;;;;11.91;39.65;98345.47;5076366;28;20285;-68
2021/04/06 10:43:28;;;;;;;0.43;0.20;;;;;;;11.84;36.49;98332.88;5079291;28;20224;-74
2021/04/06 10:46:01;;;;;;;0.23;0.17;;;;;;;12.08;37.07;98352.50;5081013;28;20210;-74
2021/04/06 10:48:31;;;;;;;2.33;0.23;;;;;;;11.86;37.12;98339.75;5081649;28;20202;-74
2021/04/06 10:51:01;;;;;;;5.00;0.30;;;;;;;11.98;38.69;98346.47;5083673;28;20205;-74
2021/04/06 10:53:30;;;;;;;2.13;0.17;;;;;;;12.29;38.90;98343.84;5080122;28;20207;-74
2021/04/06 10:56:08;;;;;;;0.40;0.40;;;;;;;12.25;37.89;98333.63;5075219;28;20327;-74
2021/04/06 10:58:43;;;;;;;0.20;0.20;;;;;;;12.45;35.56;98351.00;5076526;28;20679;-74
2021/04/06 11:01:13;;;;;;;0.20;0.03;;;;;;;12.34;37.46;98325.31;5072985;28;20867;-74
2021/04/06 11:03:46;;;;;;;0.47;0.20;;;;;;;12.75;37.99;98343.97;5073782;28;20668;-74
2021/04/06 11:06:22;;;;;;;0.20;0.20;;;;;;;12.85;37.11;98349.09;5073886;28;20240;-74
2021/04/06 11:08:51;;;;;;;0.00;0.00;;;;;;;13.08;37.38;98355.38;5076828;28;20785;-74
2021/04/06 11:11:26;;;;;;;0.30;0.17;;;;;;;13.18;35.85;98349.78;5068448;28;20214;-74
2021/04/06 11:13:55;;;;;;;0.20;0.20;;;;;;;12.95;37.38;98287.78;5075473;28;20206;-74
2021/04/06 11:16:23;;;;;;;0.23;0.23;;;;;;;13.18;36.46;98349.78;5081934;28;20194;-74
2021/04/06 11:18:59;;;;;;;0.40;0.17;;;;;;;13.33;36.96;98351.50;5074564;28;20717;-74
2021/04/06 11:21:27;;;;;;;0.10;0.10;;;;;;;13.54;37.04;98350.00;5081345;28;20222;-74
2021/04/06 11:23:55;;;;;;;0.27;0.23;;;;;;;13.58;36.53;98351.31;5074822;28;20677;-74
2021/04/06 11:26:23;;;;;;;0.87;0.20;;;;;;;13.79;36.92;98343.38;5077488;28;20204;-68
2021/04/06 11:28:50;;;;;;;0.10;0.10;;;;;;;13.96;36.40;98352.94;5076556;28;20198;-74
2021/04/06 11:31:18;;;;;;;2.97;0.10;;;;;;;14.22;37.16;98346.28;5075415;28;20276;-74
2021/04/06 11:33:45;;;;;;;0.13;0.10;;;;;;;14.34;36.00;98341.22;5076112;28;20661;-73
2021/04/06 11:36:13;;;;;;;0.40;0.40;;;;;;;14.32;33.32;98349.50;5075560;28;20285;-74
2021/04/06 11:38:42;;;;;;;0.37;0.23;;;;;;;14.34;35.17;98347.47;5076281;28;20245;-74
2021/04/06 11:41:16;;;;;;;0.50;0.23;;;;;;;14.31;34.65;98347.84;5071835;28;20562;-74
2021/04/06 11:43:44;;;;;;;0.20;0.10;;;;;;;14.54;36.10;98348.59;5073548;28;20791;-73
2021/04/06 11:46:11;;;;;;;0.17;0.10;;;;;;;14.63;35.98;98348.50;5077012;28;20194;-74
2021/04/06 11:48:39;;;;;;;18.53;14.03;;;;;;;14.60;34.74;98342.44;5073132;28;20204;-73
2021/04/06 11:51:08;;;;;;;152.60;73.87;;;;;;;14.65;35.27;98328.38;5075295;28;20309;-74
2021/04/06 11:53:35;;;;;;;11.37;5.77;;;;;;;14.82;33.11;98354.16;5075723;28;20291;-70
2021/04/06 11:56:04;;;;;;;0.73;0.70;;;;;;;14.71;34.15;98356.50;5074062;28;20197;-73
2021/04/06 11:58:31;;;;;;;0.80;0.77;;;;;;;14.75;35.32;98365.91;5073526;28;20264;-74